sensor_id;sensor_type;location;lat;lon;timestamp;pressure;altitude;pressure_sealevel;temperature;humidity
71424;BME280;59240;51.370;-0.486;2023-05-25T00:01:38;102558.31;;;14.60;56.34
71424;BME280;59240;51.370;-0.486;2023-05-25T00:04:09;102581.88;;;14.66;55.43
71424;BME280;59240;51.370;-0.486;2023-05-25T00:06:36;102584.53;;;14.64;56.09
71424;BME280;59240;51.370;-0.486;2023-05-25T00:09:06;102593.25;;;14.65;56.45
71424;BME280;59240;51.370;-0.486;2023-05-25T00:11:33;102582.81;;;14.62;55.84
71424;BME280;59240;51.370;-0.486;2023-05-25T00:13:59;102581.13;;;14.56;55.87
71424;BME280;59240;51.370;-0.486;2023-05-25T00:16:28;102587.19;;;14.58;56.07
71424;BME280;59240;51.370;-0.486;2023-05-25T00:18:55;102595.91;;;14.60;55.87
71424;BME280;59240;51.370;-0.486;2023-05-25T00:21:23;102586.44;;;14.48;56.12
71424;BME280;59240;51.370;-0.486;2023-05-25T00:23:51;102592.50;;;14.52;55.87
71424;BME280;59240;51.370;-0.486;2023-05-25T00:26:17;102597.78;;;14.50;56.44
71424;BME280;59240;51.370;-0.486;2023-05-25T00:28:44;102575.16;;;14.34;56.14
71424;BME280;59240;51.370;-0.486;2023-05-25T00:31:10;102583.88;;;14.36;56.87
71424;BME280;59240;51.370;-0.486;2023-05-25T00:33:37;102594.31;;;14.41;56.78
71424;BME280;59240;51.370;-0.486;2023-05-25T00:36:04;102564.81;;;14.17;56.65
71424;BME280;59240;51.370;-0.486;2023-05-25T00:38:31;102597.00;;;14.33;56.91
71424;BME280;59240;51.370;-0.486;2023-05-25T00:40:58;102601.38;;;14.33;57.66
71424;BME280;59240;51.370;-0.486;2023-05-25T00:43:24;102601.44;;;14.27;56.90
71424;BME280;59240;51.370;-0.486;2023-05-25T00:45:51;102606.66;;;14.27;58.21
71424;BME280;59240;51.370;-0.486;2023-05-25T00:48:19;102609.34;;;14.23;56.91
71424;BME280;59240;51.370;-0.486;2023-05-25T00:50:45;102602.41;;;14.15;57.82
71424;BME280;59240;51.370;-0.486;2023-05-25T00:53:13;102606.78;;;14.14;57.78
71424;BME280;59240;51.370;-0.486;2023-05-25T00:58:32;102606.00;;;14.02;57.38
71424;BME280;59240;51.370;-0.486;2023-05-25T01:01:02;102621.66;;;14.09;57.89
71424;BME280;59240;51.370;-0.486;2023-05-25T01:03:33;102620.81;;;14.04;58.39
71424;BME280;59240;51.370;-0.486;2023-05-25T01:06:06;102594.75;;;13.86;58.47
71424;BME280;59240;51.370;-0.486;2023-05-25T01:08:36;102608.72;;;13.85;58.35
71424;BME280;59240;51.370;-0.486;2023-05-25T01:11:05;102618.38;;;13.81;59.00
71424;BME280;59240;51.370;-0.486;2023-05-25T01:13:33;102620.97;;;13.83;58.69
71424;BME280;59240;51.370;-0.486;2023-05-25T01:16:00;102631.44;;;13.83;58.05
71424;BME280;59240;51.370;-0.486;2023-05-25T01:18:26;102640.16;;;13.85;58.89
71424;BME280;59240;51.370;-0.486;2023-05-25T01:21:08;102610.63;;;13.61;60.27
71424;BME280;59240;51.370;-0.486;2023-05-25T01:23:49;102624.53;;;13.69;59.03
71424;BME280;59240;51.370;-0.486;2023-05-25T01:26:19;102641.09;;;13.75;59.15
71424;BME280;59240;51.370;-0.486;2023-05-25T01:28:51;102635.91;;;13.68;58.48
71424;BME280;59240;51.370;-0.486;2023-05-25T01:31:20;102647.22;;;13.74;58.25
71424;BME280;59240;51.370;-0.486;2023-05-25T01:33:52;102629.84;;;13.60;59.25
71424;BME280;59240;51.370;-0.486;2023-05-25T01:36:19;102643.75;;;13.65;58.78
71424;BME280;59240;51.370;-0.486;2023-05-25T01:38:46;102627.25;;;13.51;59.00
71424;BME280;59240;51.370;-0.486;2023-05-25T01:41:13;102628.13;;;13.50;59.00
71424;BME280;59240;51.370;-0.486;2023-05-25T01:43:40;102643.81;;;13.52;59.92
71424;BME280;59240;51.370;-0.486;2023-05-25T01:46:15;102647.34;;;13.49;60.28
71424;BME280;59240;51.370;-0.486;2023-05-25T01:49:08;102635.16;;;13.42;61.90
71424;BME280;59240;51.370;-0.486;2023-05-25T01:52:20;102649.97;;;13.43;62.21
71424;BME280;59240;51.370;-0.486;2023-05-25T01:55:14;102650.88;;;13.40;61.83
71424;BME280;59240;51.370;-0.486;2023-05-25T01:57:45;102643.94;;;13.32;59.93
71424;BME280;59240;51.370;-0.486;2023-05-25T02:00:15;102643.94;;;13.32;59.55
71424;BME280;59240;51.370;-0.486;2023-05-25T02:02:44;102650.91;;;13.33;59.70
71424;BME280;59240;51.370;-0.486;2023-05-25T02:05:12;102645.66;;;13.33;60.14
71424;BME280;59240;51.370;-0.486;2023-05-25T02:07:39;102640.44;;;13.28;59.95
71424;BME280;59240;51.370;-0.486;2023-05-25T02:10:06;102616.91;;;13.14;60.28
71424;BME280;59240;51.370;-0.486;2023-05-25T02:12:33;102637.84;;;13.22;60.02
71424;BME280;59240;51.370;-0.486;2023-05-25T02:14:59;102623.00;;;13.10;60.64
71424;BME280;59240;51.370;-0.486;2023-05-25T02:17:26;102640.47;;;13.21;60.96
71424;BME280;59240;51.370;-0.486;2023-05-25T02:19:53;102618.66;;;13.02;60.78
71424;BME280;59240;51.370;-0.486;2023-05-25T02:22:21;102623.03;;;13.07;61.36
71424;BME280;59240;51.370;-0.486;2023-05-25T02:24:47;102644.81;;;13.14;61.03
71424;BME280;59240;51.370;-0.486;2023-05-25T02:27:14;102616.03;;;13.03;60.62
71424;BME280;59240;51.370;-0.486;2023-05-25T02:29:40;102648.28;;;13.16;61.15
71424;BME280;59240;51.370;-0.486;2023-05-25T02:32:09;102645.69;;;13.14;61.36
71424;BME280;59240;51.370;-0.486;2023-05-25T02:34:36;102638.72;;;13.09;61.50
71424;BME280;59240;51.370;-0.486;2023-05-25T02:37:03;102645.69;;;13.10;61.13
71424;BME280;59240;51.370;-0.486;2023-05-25T02:39:29;102636.97;;;13.03;61.53
71424;BME280;59240;51.370;-0.486;2023-05-25T02:41:56;102636.97;;;13.06;62.08
71424;BME280;59240;51.370;-0.486;2023-05-25T02:44:22;102647.44;;;13.09;62.30
71424;BME280;59240;51.370;-0.486;2023-05-25T02:46:49;102650.06;;;13.06;61.90
71424;BME280;59240;51.370;-0.486;2023-05-25T02:49:16;102630.03;;;12.93;61.51
71424;BME280;59240;51.370;-0.486;2023-05-25T02:51:42;102641.34;;;13.00;62.21
71424;BME280;59240;51.370;-0.486;2023-05-25T02:54:09;102656.19;;;13.05;61.79
71424;BME280;59240;51.370;-0.486;2023-05-25T02:56:35;102646.59;;;13.00;62.25
71424;BME280;59240;51.370;-0.486;2023-05-25T02:59:02;102633.53;;;12.92;62.00
71424;BME280;59240;51.370;-0.486;2023-05-25T03:01:28;102623.06;;;12.89;62.43
71424;BME280;59240;51.370;-0.486;2023-05-25T03:03:56;102652.69;;;13.06;62.83
71424;BME280;59240;51.370;-0.486;2023-05-25T03:06:23;102639.63;;;12.94;62.37
71424;BME280;59240;51.370;-0.486;2023-05-25T03:08:53;102637.00;;;13.00;62.92
71424;BME280;59240;51.370;-0.486;2023-05-25T03:11:19;102659.66;;;13.13;62.51
71424;BME280;59240;51.370;-0.486;2023-05-25T03:13:46;102649.16;;;13.13;62.73
71424;BME280;59240;51.370;-0.486;2023-05-25T03:16:12;102652.66;;;13.19;63.17
71424;BME280;59240;51.370;-0.486;2023-05-25T03:18:39;102656.16;;;13.21;63.08
71424;BME280;59240;51.370;-0.486;2023-05-25T03:21:06;102650.03;;;13.26;63.15
71424;BME280;59240;51.370;-0.486;2023-05-25T03:23:32;102641.31;;;13.18;63.01
71424;BME280;59240;51.370;-0.486;2023-05-25T03:25:59;102657.00;;;13.33;63.06
71424;BME280;59240;51.370;-0.486;2023-05-25T03:28:26;102647.41;;;13.34;63.33
71424;BME280;59240;51.370;-0.486;2023-05-25T03:30:52;102653.47;;;13.45;63.52
71424;BME280;59240;51.370;-0.486;2023-05-25T03:33:19;102657.81;;;13.49;63.62
71424;BME280;59240;51.370;-0.486;2023-05-25T03:35:45;102631.66;;;13.40;64.30
71424;BME280;59240;51.370;-0.486;2023-05-25T03:38:12;102659.53;;;13.59;64.70
71424;BME280;59240;51.370;-0.486;2023-05-25T03:40:38;102645.56;;;13.54;63.93
71424;BME280;59240;51.370;-0.486;2023-05-25T03:43:05;102669.06;;;13.71;64.35
71424;BME280;59240;51.370;-0.486;2023-05-25T03:45:31;102664.72;;;13.68;64.54
71424;BME280;59240;51.370;-0.486;2023-05-25T03:47:58;102669.91;;;13.75;64.55
71424;BME280;59240;51.370;-0.486;2023-05-25T03:50:25;102659.44;;;13.75;64.14
71424;BME280;59240;51.370;-0.486;2023-05-25T03:52:51;102669.88;;;13.87;64.38
71424;BME280;59240;51.370;-0.486;2023-05-25T03:55:18;102652.38;;;13.86;64.23
71424;BME280;59240;51.370;-0.486;2023-05-25T03:57:45;102641.97;;;13.80;64.61
71424;BME280;59240;51.370;-0.486;2023-05-25T04:00:12;102661.97;;;13.94;64.97
71424;BME280;59240;51.370;-0.486;2023-05-25T04:02:39;102644.47;;;13.92;64.49
71424;BME280;59240;51.370;-0.486;2023-05-25T04:05:06;102666.22;;;14.06;64.44
71424;BME280;59240;51.370;-0.486;2023-05-25T04:07:32;102663.59;;;14.06;65.05
71424;BME280;59240;51.370;-0.486;2023-05-25T04:09:59;102662.75;;;14.07;65.23
71424;BME280;59240;51.370;-0.486;2023-05-25T04:12:26;102648.81;;;14.02;65.46
71424;BME280;59240;51.370;-0.486;2023-05-25T04:14:52;102678.41;;;14.16;64.25
71424;BME280;59240;51.370;-0.486;2023-05-25T04:17:19;102636.59;;;13.98;64.40
71424;BME280;59240;51.370;-0.486;2023-05-25T04:19:51;102670.53;;;14.16;64.88
71424;BME280;59240;51.370;-0.486;2023-05-25T04:22:17;102671.41;;;14.21;64.69
71424;BME280;59240;51.370;-0.486;2023-05-25T04:24:45;102667.00;;;14.20;65.26
71424;BME280;59240;51.370;-0.486;2023-05-25T04:27:12;102687.00;;;14.34;64.02
71424;BME280;59240;51.370;-0.486;2023-05-25T04:29:42;102667.84;;;14.29;65.08
71424;BME280;59240;51.370;-0.486;2023-05-25T04:32:09;102685.28;;;14.36;64.26
71424;BME280;59240;51.370;-0.486;2023-05-25T04:34:35;102672.16;;;14.37;64.68
71424;BME280;59240;51.370;-0.486;2023-05-25T04:37:03;102679.09;;;14.40;64.05
71424;BME280;59240;51.370;-0.486;2023-05-25T04:39:33;102669.53;;;14.36;64.71
71424;BME280;59240;51.370;-0.486;2023-05-25T04:42:03;102675.59;;;14.42;65.52
71424;BME280;59240;51.370;-0.486;2023-05-25T04:44:31;102671.28;;;14.37;64.81
71424;BME280;59240;51.370;-0.486;2023-05-25T04:46:58;102672.13;;;14.39;64.77
71424;BME280;59240;51.370;-0.486;2023-05-25T04:49:27;102699.13;;;14.56;65.51
71424;BME280;59240;51.370;-0.486;2023-05-25T04:51:53;102696.50;;;14.56;65.40
71424;BME280;59240;51.370;-0.486;2023-05-25T04:54:20;102699.06;;;14.65;64.80
71424;BME280;59240;51.370;-0.486;2023-05-25T04:56:47;102681.63;;;14.58;65.61
71424;BME280;59240;51.370;-0.486;2023-05-25T04:59:13;102695.47;;;14.74;64.89
71424;BME280;59240;51.370;-0.486;2023-05-25T05:01:40;102702.47;;;14.76;65.33
71424;BME280;59240;51.370;-0.486;2023-05-25T05:04:07;102700.69;;;14.78;65.72
71424;BME280;59240;51.370;-0.486;2023-05-25T05:06:34;102700.66;;;14.82;65.69
71424;BME280;59240;51.370;-0.486;2023-05-25T05:09:02;102702.38;;;14.86;65.12
71424;BME280;59240;51.370;-0.486;2023-05-25T05:11:29;102698.84;;;14.90;65.94
71424;BME280;59240;51.370;-0.486;2023-05-25T05:13:56;102674.44;;;14.78;65.88
71424;BME280;59240;51.370;-0.486;2023-05-25T05:16:22;102677.97;;;14.77;65.73
71424;BME280;59240;51.370;-0.486;2023-05-25T05:18:49;102692.75;;;14.86;65.22
71424;BME280;59240;51.370;-0.486;2023-05-25T05:21:15;102665.78;;;14.70;65.15
71424;BME280;59240;51.370;-0.486;2023-05-25T05:23:42;102695.34;;;14.88;65.25
71424;BME280;59240;51.370;-0.486;2023-05-25T05:26:09;102694.44;;;14.92;65.15
71424;BME280;59240;51.370;-0.486;2023-05-25T05:28:37;102683.16;;;14.84;65.89
71424;BME280;59240;51.370;-0.486;2023-05-25T05:31:05;102714.47;;;15.02;64.55
71424;BME280;59240;51.370;-0.486;2023-05-25T05:33:32;102710.94;;;15.04;65.26
71424;BME280;59240;51.370;-0.486;2023-05-25T05:35:59;102710.97;;;15.03;64.85
71424;BME280;59240;51.370;-0.486;2023-05-25T05:38:28;102730.09;;;15.14;64.28
71424;BME280;59240;51.370;-0.486;2023-05-25T05:40:54;102726.50;;;15.21;64.56
71424;BME280;59240;51.370;-0.486;2023-05-25T05:43:21;102709.06;;;15.17;65.08
71424;BME280;59240;51.370;-0.486;2023-05-25T05:45:48;102719.44;;;15.29;64.56
71424;BME280;59240;51.370;-0.486;2023-05-25T05:48:15;102722.94;;;15.28;64.05
71424;BME280;59240;51.370;-0.486;2023-05-25T05:50:41;102704.63;;;15.24;64.20
71424;BME280;59240;51.370;-0.486;2023-05-25T05:53:08;102733.38;;;15.35;64.05
71424;BME280;59240;51.370;-0.486;2023-05-25T05:55:35;102712.41;;;15.31;63.24
71424;BME280;59240;51.370;-0.486;2023-05-25T05:58:09;102699.41;;;15.19;63.38
71424;BME280;59240;51.370;-0.486;2023-05-25T06:00:36;102726.41;;;15.33;63.15
71424;BME280;59240;51.370;-0.486;2023-05-25T06:03:02;102749.81;;;15.53;62.52
71424;BME280;59240;51.370;-0.486;2023-05-25T06:05:29;102738.56;;;15.41;61.87
71424;BME280;59240;51.370;-0.486;2023-05-25T06:07:56;102756.00;;;15.48;62.52
71424;BME280;59240;51.370;-0.486;2023-05-25T06:10:23;102741.97;;;15.49;62.10
71424;BME280;59240;51.370;-0.486;2023-05-25T06:12:52;102728.06;;;15.41;62.15
71424;BME280;59240;51.370;-0.486;2023-05-25T06:15:24;102741.91;;;15.55;62.51
71424;BME280;59240;51.370;-0.486;2023-05-25T06:17:56;102726.25;;;15.47;61.76
71424;BME280;59240;51.370;-0.486;2023-05-25T06:20:23;102743.63;;;15.62;61.21
71424;BME280;59240;51.370;-0.486;2023-05-25T06:22:50;102731.38;;;15.58;61.03
71424;BME280;59240;51.370;-0.486;2023-05-25T06:25:16;102754.00;;;15.73;61.04
71424;BME280;59240;51.370;-0.486;2023-05-25T06:27:43;102732.25;;;15.62;61.06
71424;BME280;59240;51.370;-0.486;2023-05-25T06:30:10;102730.47;;;15.64;60.78
71424;BME280;59240;51.370;-0.486;2023-05-25T06:32:37;102739.13;;;15.73;60.87
71424;BME280;59240;51.370;-0.486;2023-05-25T06:35:16;102689.44;;;15.52;60.92
71424;BME280;59240;51.370;-0.486;2023-05-25T06:37:50;102706.84;;;15.62;60.06
71424;BME280;59240;51.370;-0.486;2023-05-25T06:40:17;102738.00;;;15.93;60.21
71424;BME280;59240;51.370;-0.486;2023-05-25T06:42:44;102763.06;;;16.17;60.21
71424;BME280;59240;51.370;-0.486;2023-05-25T06:45:11;102745.50;;;16.19;59.53
71424;BME280;59240;51.370;-0.486;2023-05-25T06:47:38;102742.59;;;16.38;59.65
71424;BME280;59240;51.370;-0.486;2023-05-25T06:50:05;102751.84;;;16.64;59.74
71424;BME280;59240;51.370;-0.486;2023-05-25T06:52:37;102752.41;;;16.86;58.44
71424;BME280;59240;51.370;-0.486;2023-05-25T06:55:05;102766.03;;;17.11;58.03
71424;BME280;59240;51.370;-0.486;2023-05-25T06:57:32;102753.75;;;17.10;57.64
71424;BME280;59240;51.370;-0.486;2023-05-25T06:59:59;102751.56;;;17.33;57.51
71424;BME280;59240;51.370;-0.486;2023-05-25T07:02:29;102775.78;;;17.54;53.55
71424;BME280;59240;51.370;-0.486;2023-05-25T07:04:58;102737.56;;;17.31;56.29
71424;BME280;59240;51.370;-0.486;2023-05-25T07:07:36;102766.84;;;17.61;56.33
71424;BME280;59240;51.370;-0.486;2023-05-25T07:10:03;102744.03;;;17.60;56.02
71424;BME280;59240;51.370;-0.486;2023-05-25T07:12:30;102762.78;;;17.89;55.72
71424;BME280;59240;51.370;-0.486;2023-05-25T07:14:57;102741.56;;;17.95;55.44
71424;BME280;59240;51.370;-0.486;2023-05-25T07:17:28;102772.50;;;18.27;54.03
71424;BME280;59240;51.370;-0.486;2023-05-25T07:19:56;102739.94;;;18.28;54.39
71424;BME280;59240;51.370;-0.486;2023-05-25T07:22:24;102778.78;;;18.61;54.24
71424;BME280;59240;51.370;-0.486;2023-05-25T07:24:53;102757.66;;;18.61;52.96
71424;BME280;59240;51.370;-0.486;2023-05-25T07:27:20;102754.78;;;18.71;53.30
71424;BME280;59240;51.370;-0.486;2023-05-25T07:29:46;102777.19;;;18.91;52.55
71424;BME280;59240;51.370;-0.486;2023-05-25T07:32:13;102770.91;;;18.96;52.17
71424;BME280;59240;51.370;-0.486;2023-05-25T07:34:40;102756.88;;;18.94;51.99
71424;BME280;59240;51.370;-0.486;2023-05-25T07:37:07;102773.88;;;19.17;51.89
71424;BME280;59240;51.370;-0.486;2023-05-25T07:39:33;102770.22;;;19.22;50.95
71424;BME280;59240;51.370;-0.486;2023-05-25T07:42:00;102795.28;;;19.40;51.32
71424;BME280;59240;51.370;-0.486;2023-05-25T07:44:27;102773.31;;;19.38;51.27
71424;BME280;59240;51.370;-0.486;2023-05-25T07:46:55;102781.56;;;19.60;50.94
71424;BME280;59240;51.370;-0.486;2023-05-25T07:49:21;102776.88;;;19.70;49.84
71424;BME280;59240;51.370;-0.486;2023-05-25T07:51:50;102779.25;;;19.79;50.37
71424;BME280;59240;51.370;-0.486;2023-05-25T07:54:18;102772.59;;;19.95;49.88
71424;BME280;59240;51.370;-0.486;2023-05-25T07:56:45;102771.59;;;19.99;48.98
71424;BME280;59240;51.370;-0.486;2023-05-25T07:59:11;102803.47;;;20.24;49.23
71424;BME280;59240;51.370;-0.486;2023-05-25T08:01:38;102803.22;;;20.33;48.87
71424;BME280;59240;51.370;-0.486;2023-05-25T08:04:05;102779.63;;;20.26;48.76
71424;BME280;59240;51.370;-0.486;2023-05-25T08:06:31;102764.63;;;20.26;48.22
71424;BME280;59240;51.370;-0.486;2023-05-25T08:09:02;102777.69;;;20.31;46.95
71424;BME280;59240;51.370;-0.486;2023-05-25T08:11:29;102804.34;;;20.54;48.41
71424;BME280;59240;51.370;-0.486;2023-05-25T08:13:56;102787.34;;;20.61;47.97
71424;BME280;59240;51.370;-0.486;2023-05-25T08:16:29;102780.13;;;20.66;46.86
71424;BME280;59240;51.370;-0.486;2023-05-25T08:18:56;102785.78;;;20.82;47.70
71424;BME280;59240;51.370;-0.486;2023-05-25T08:21:22;102772.41;;;20.87;47.16
71424;BME280;59240;51.370;-0.486;2023-05-25T08:23:49;102774.00;;;20.91;46.99
71424;BME280;59240;51.370;-0.486;2023-05-25T08:26:16;102783.88;;;20.86;46.65
71424;BME280;59240;51.370;-0.486;2023-05-25T08:29:03;102794.28;;;20.92;47.20
71424;BME280;59240;51.370;-0.486;2023-05-25T08:31:31;102789.63;;;21.00;46.85
71424;BME280;59240;51.370;-0.486;2023-05-25T08:34:01;102785.06;;;21.03;44.47
71424;BME280;59240;51.370;-0.486;2023-05-25T08:36:29;102759.63;;;20.98;46.26
71424;BME280;59240;51.370;-0.486;2023-05-25T08:38:59;102781.56;;;21.29;45.95
71424;BME280;59240;51.370;-0.486;2023-05-25T08:41:26;102804.31;;;21.60;45.40
71424;BME280;59240;51.370;-0.486;2023-05-25T08:43:55;102788.13;;;21.68;45.11
71424;BME280;59240;51.370;-0.486;2023-05-25T08:46:29;102761.94;;;21.58;44.03
71424;BME280;59240;51.370;-0.486;2023-05-25T08:49:05;102783.78;;;21.42;42.37
71424;BME280;59240;51.370;-0.486;2023-05-25T08:51:35;102781.81;;;21.20;45.27
71424;BME280;59240;51.370;-0.486;2023-05-25T08:54:06;102800.69;;;21.38;44.86
71424;BME280;59240;51.370;-0.486;2023-05-25T08:56:40;102791.97;;;21.59;45.48
71424;BME280;59240;51.370;-0.486;2023-05-25T08:59:17;102778.97;;;21.76;43.71
71424;BME280;59240;51.370;-0.486;2023-05-25T09:01:52;102774.25;;;21.84;44.64
71424;BME280;59240;51.370;-0.486;2023-05-25T09:04:26;102766.84;;;21.93;43.96
71424;BME280;59240;51.370;-0.486;2023-05-25T09:07:01;102791.75;;;21.89;44.24
71424;BME280;59240;51.370;-0.486;2023-05-25T09:09:37;102772.25;;;21.43;44.22
71424;BME280;59240;51.370;-0.486;2023-05-25T09:12:04;102791.13;;;21.34;43.57
71424;BME280;59240;51.370;-0.486;2023-05-25T09:14:34;102791.81;;;21.14;44.15
71424;BME280;59240;51.370;-0.486;2023-05-25T09:17:03;102795.78;;;21.25;44.31
71424;BME280;59240;51.370;-0.486;2023-05-25T09:19:30;102799.78;;;21.39;44.28
71424;BME280;59240;51.370;-0.486;2023-05-25T09:21:56;102776.03;;;21.36;44.30
71424;BME280;59240;51.370;-0.486;2023-05-25T09:24:40;102791.88;;;21.62;44.29
71424;BME280;59240;51.370;-0.486;2023-05-25T09:27:14;102796.63;;;21.77;44.11
71424;BME280;59240;51.370;-0.486;2023-05-25T09:29:48;102796.50;;;22.04;43.41
71424;BME280;59240;51.370;-0.486;2023-05-25T09:32:18;102797.06;;;22.35;42.69
71424;BME280;59240;51.370;-0.486;2023-05-25T09:34:51;102732.63;;;22.32;41.93
71424;BME280;59240;51.370;-0.486;2023-05-25T09:37:20;102752.94;;;22.75;43.24
71424;BME280;59240;51.370;-0.486;2023-05-25T09:40:07;102780.81;;;23.29;42.32
71424;BME280;59240;51.370;-0.486;2023-05-25T09:42:35;102797.19;;;23.61;37.21
71424;BME280;59240;51.370;-0.486;2023-05-25T09:45:11;102797.94;;;23.42;40.79
71424;BME280;59240;51.370;-0.486;2023-05-25T09:47:39;102757.78;;;22.87;41.38
71424;BME280;59240;51.370;-0.486;2023-05-25T09:50:07;102768.75;;;22.58;40.20
71424;BME280;59240;51.370;-0.486;2023-05-25T09:52:35;102782.63;;;22.43;41.51
71424;BME280;59240;51.370;-0.486;2023-05-25T09:55:02;102793.13;;;22.46;41.35
71424;BME280;59240;51.370;-0.486;2023-05-25T09:57:29;102785.88;;;22.71;41.80
71424;BME280;59240;51.370;-0.486;2023-05-25T09:59:56;102764.50;;;22.96;41.18
71424;BME280;59240;51.370;-0.486;2023-05-25T10:02:23;102772.28;;;23.21;40.40
71424;BME280;59240;51.370;-0.486;2023-05-25T10:04:50;102756.09;;;23.07;40.71
71424;BME280;59240;51.370;-0.486;2023-05-25T10:07:17;102790.38;;;23.13;40.69
71424;BME280;59240;51.370;-0.486;2023-05-25T10:09:46;102784.41;;;23.28;40.92
71424;BME280;59240;51.370;-0.486;2023-05-25T10:12:16;102783.56;;;23.46;40.28
71424;BME280;59240;51.370;-0.486;2023-05-25T10:14:45;102816.03;;;23.75;38.90
71424;BME280;59240;51.370;-0.486;2023-05-25T10:17:20;102813.78;;;23.66;39.71
71424;BME280;59240;51.370;-0.486;2023-05-25T10:19:55;102811.69;;;23.72;38.82
71424;BME280;59240;51.370;-0.486;2023-05-25T10:22:35;102826.00;;;23.90;39.16
71424;BME280;59240;51.370;-0.486;2023-05-25T10:25:09;102827.56;;;24.13;37.22
71424;BME280;59240;51.370;-0.486;2023-05-25T10:27:41;102804.25;;;23.99;38.97
71424;BME280;59240;51.370;-0.486;2023-05-25T10:30:18;102796.31;;;23.79;38.81
71424;BME280;59240;51.370;-0.486;2023-05-25T10:32:46;102808.69;;;23.60;39.10
71424;BME280;59240;51.370;-0.486;2023-05-25T10:35:13;102793.00;;;23.33;38.82
71424;BME280;59240;51.370;-0.486;2023-05-25T10:37:41;102808.59;;;23.22;38.98
71424;BME280;59240;51.370;-0.486;2023-05-25T10:40:12;102824.00;;;23.14;39.19
71424;BME280;59240;51.370;-0.486;2023-05-25T10:42:40;102772.09;;;22.83;39.37
71424;BME280;59240;51.370;-0.486;2023-05-25T10:45:11;102790.03;;;23.00;39.59
71424;BME280;59240;51.370;-0.486;2023-05-25T10:47:39;102813.72;;;23.27;39.64
71424;BME280;59240;51.370;-0.486;2023-05-25T10:50:23;102806.72;;;23.44;38.83
71424;BME280;59240;51.370;-0.486;2023-05-25T10:53:06;102832.41;;;23.66;37.76
71424;BME280;59240;51.370;-0.486;2023-05-25T10:56:00;102831.19;;;23.53;37.88
71424;BME280;59240;51.370;-0.486;2023-05-25T10:58:28;102824.47;;;23.24;39.42
71424;BME280;59240;51.370;-0.486;2023-05-25T11:06:17;102814.00;;;23.61;39.44
71424;BME280;59240;51.370;-0.486;2023-05-25T11:08:54;102787.63;;;23.55;37.93
71424;BME280;59240;51.370;-0.486;2023-05-25T11:14:22;102816.84;;;24.15;38.39
71424;BME280;59240;51.370;-0.486;2023-05-25T11:17:09;102815.75;;;24.56;37.58
71424;BME280;59240;51.370;-0.486;2023-05-25T11:19:50;102824.31;;;24.99;38.03
71424;BME280;59240;51.370;-0.486;2023-05-25T11:22:29;102793.75;;;25.06;38.68
71424;BME280;59240;51.370;-0.486;2023-05-25T11:25:01;102747.47;;;25.07;37.61
71424;BME280;59240;51.370;-0.486;2023-05-25T11:27:30;102797.47;;;25.54;37.76
71424;BME280;59240;51.370;-0.486;2023-05-25T11:29:58;102822.19;;;25.75;35.94
71424;BME280;59240;51.370;-0.486;2023-05-25T11:32:25;102792.84;;;25.75;36.84
71424;BME280;59240;51.370;-0.486;2023-05-25T11:34:55;102827.53;;;26.08;36.42
71424;BME280;59240;51.370;-0.486;2023-05-25T11:37:25;102805.59;;;25.86;35.73
71424;BME280;59240;51.370;-0.486;2023-05-25T11:40:05;102787.66;;;25.55;35.77
71424;BME280;59240;51.370;-0.486;2023-05-25T11:42:38;102807.13;;;25.74;35.81
71424;BME280;59240;51.370;-0.486;2023-05-25T11:45:12;102804.44;;;25.57;34.71
71424;BME280;59240;51.370;-0.486;2023-05-25T11:47:59;102807.75;;;25.45;33.90
71424;BME280;59240;51.370;-0.486;2023-05-25T11:50:28;102793.50;;;25.11;36.30
71424;BME280;59240;51.370;-0.486;2023-05-25T11:53:03;102832.84;;;24.89;35.29
71424;BME280;59240;51.370;-0.486;2023-05-25T11:55:32;102827.91;;;24.81;36.24
71424;BME280;59240;51.370;-0.486;2023-05-25T11:58:01;102811.28;;;24.93;36.38
71424;BME280;59240;51.370;-0.486;2023-05-25T12:00:28;102809.16;;;25.19;36.54
71424;BME280;59240;51.370;-0.486;2023-05-25T12:02:56;102791.06;;;25.41;36.41
71424;BME280;59240;51.370;-0.486;2023-05-25T12:05:23;102793.28;;;25.66;36.17
71424;BME280;59240;51.370;-0.486;2023-05-25T12:07:50;102798.28;;;25.89;36.20
71424;BME280;59240;51.370;-0.486;2023-05-25T12:10:16;102817.88;;;26.22;35.68
71424;BME280;59240;51.370;-0.486;2023-05-25T12:12:47;102807.00;;;26.25;34.74
71424;BME280;59240;51.370;-0.486;2023-05-25T12:15:20;102823.47;;;26.33;34.65
71424;BME280;59240;51.370;-0.486;2023-05-25T12:17:51;102789.06;;;26.27;34.68
71424;BME280;59240;51.370;-0.486;2023-05-25T12:20:20;102793.72;;;26.39;34.54
71424;BME280;59240;51.370;-0.486;2023-05-25T12:22:47;102783.38;;;26.49;34.95
71424;BME280;59240;51.370;-0.486;2023-05-25T12:25:18;102821.56;;;26.66;34.11
71424;BME280;59240;51.370;-0.486;2023-05-25T12:27:45;102823.41;;;26.50;34.42
71424;BME280;59240;51.370;-0.486;2023-05-25T12:30:12;102815.97;;;26.24;34.96
71424;BME280;59240;51.370;-0.486;2023-05-25T12:32:59;102829.75;;;26.32;32.98
71424;BME280;59240;51.370;-0.486;2023-05-25T12:35:29;102803.56;;;26.23;34.05
71424;BME280;59240;51.370;-0.486;2023-05-25T12:38:09;102813.47;;;26.36;32.62
71424;BME280;59240;51.370;-0.486;2023-05-25T12:40:36;102801.31;;;26.31;33.26
71424;BME280;59240;51.370;-0.486;2023-05-25T12:43:03;102800.47;;;26.46;34.02
71424;BME280;59240;51.370;-0.486;2023-05-25T12:45:30;102783.22;;;26.52;33.30
71424;BME280;59240;51.370;-0.486;2023-05-25T12:47:56;102814.25;;;26.70;33.30
71424;BME280;59240;51.370;-0.486;2023-05-25T12:50:25;102804.78;;;26.64;33.49
71424;BME280;59240;51.370;-0.486;2023-05-25T12:52:59;102824.75;;;26.73;33.26
71424;BME280;59240;51.370;-0.486;2023-05-25T12:55:31;102822.94;;;26.73;33.15
71424;BME280;59240;51.370;-0.486;2023-05-25T12:58:05;102814.59;;;26.64;32.31
71424;BME280;59240;51.370;-0.486;2023-05-25T13:00:35;102827.69;;;26.68;32.92
71424;BME280;59240;51.370;-0.486;2023-05-25T13:03:02;102804.63;;;26.52;32.67